sensor_id;sensor_type;location;lat;lon;timestamp;temperature;humidity
21849;DHT22;11089;49.852;19.700;2023-04-28T00:02:51;3.00;99.90
21849;DHT22;11089;49.852;19.700;2023-04-28T00:05:52;2.80;1.00
21849;DHT22;11089;49.852;19.700;2023-04-28T00:08:53;2.80;1.00
21849;DHT22;11089;49.852;19.700;2023-04-28T00:11:54;2.70;1.00
21849;DHT22;11089;49.852;19.700;2023-04-28T00:14:55;2.70;1.00
21849;DHT22;11089;49.852;19.700;2023-04-28T00:17:56;2.60;1.00
21849;DHT22;11089;49.852;19.700;2023-04-28T00:20:57;2.60;1.00
21849;DHT22;11089;49.852;19.700;2023-04-28T00:23:58;2.60;1.00
21849;DHT22;11089;49.852;19.700;2023-04-28T00:26:58;2.60;1.00
21849;DHT22;11089;49.852;19.700;2023-04-28T00:30:01;2.60;1.00
21849;DHT22;11089;49.852;19.700;2023-04-28T00:33:02;2.50;1.00
21849;DHT22;11089;49.852;19.700;2023-04-28T00:36:03;2.40;1.00
21849;DHT22;11089;49.852;19.700;2023-04-28T00:39:04;2.50;99.90
21849;DHT22;11089;49.852;19.700;2023-04-28T00:42:06;2.60;99.90
21849;DHT22;11089;49.852;19.700;2023-04-28T00:45:07;2.50;99.90
21849;DHT22;11089;49.852;19.700;2023-04-28T00:48:08;2.50;1.00
21849;DHT22;11089;49.852;19.700;2023-04-28T00:51:09;2.50;1.00
21849;DHT22;11089;49.852;19.700;2023-04-28T00:54:13;2.70;99.90
21849;DHT22;11089;49.852;19.700;2023-04-28T00:57:14;2.80;1.00
21849;DHT22;11089;49.852;19.700;2023-04-28T01:00:15;3.10;1.00
21849;DHT22;11089;49.852;19.700;2023-04-28T01:03:16;3.00;1.00
21849;DHT22;11089;49.852;19.700;2023-04-28T01:06:17;3.00;1.00
21849;DHT22;11089;49.852;19.700;2023-04-28T01:09:20;3.10;1.00
21849;DHT22;11089;49.852;19.700;2023-04-28T01:12:21;3.10;1.00
21849;DHT22;11089;49.852;19.700;2023-04-28T01:15:22;3.10;1.00
21849;DHT22;11089;49.852;19.700;2023-04-28T01:18:23;2.90;1.00
21849;DHT22;11089;49.852;19.700;2023-04-28T01:21:28;2.80;13.20
21849;DHT22;11089;49.852;19.700;2023-04-28T01:24:32;2.80;1.00
21849;DHT22;11089;49.852;19.700;2023-04-28T01:27:33;2.90;1.00
21849;DHT22;11089;49.852;19.700;2023-04-28T01:30:34;3.00;99.90
21849;DHT22;11089;49.852;19.700;2023-04-28T01:33:35;3.20;68.40
21849;DHT22;11089;49.852;19.700;2023-04-28T01:36:36;3.30;15.70
21849;DHT22;11089;49.852;19.700;2023-04-28T01:39:37;3.20;1.00
21849;DHT22;11089;49.852;19.700;2023-04-28T01:42:38;3.00;99.90
21849;DHT22;11089;49.852;19.700;2023-04-28T01:45:39;3.00;99.90
21849;DHT22;11089;49.852;19.700;2023-04-28T01:48:40;3.00;1.00
21849;DHT22;11089;49.852;19.700;2023-04-28T01:51:41;2.90;1.00
21849;DHT22;11089;49.852;19.700;2023-04-28T01:54:42;2.90;1.00
21849;DHT22;11089;49.852;19.700;2023-04-28T01:57:43;2.90;1.00
21849;DHT22;11089;49.852;19.700;2023-04-28T02:00:44;3.00;99.90
21849;DHT22;11089;49.852;19.700;2023-04-28T02:03:45;2.90;99.90
21849;DHT22;11089;49.852;19.700;2023-04-28T02:06:48;2.90;99.90
21849;DHT22;11089;49.852;19.700;2023-04-28T02:09:49;2.80;1.00
21849;DHT22;11089;49.852;19.700;2023-04-28T02:12:50;2.80;78.20
21849;DHT22;11089;49.852;19.700;2023-04-28T02:15:51;2.80;1.00
21849;DHT22;11089;49.852;19.700;2023-04-28T02:18:52;2.70;1.00
21849;DHT22;11089;49.852;19.700;2023-04-28T02:21:53;2.60;99.90
21849;DHT22;11089;49.852;19.700;2023-04-28T02:24:54;2.60;99.90
21849;DHT22;11089;49.852;19.700;2023-04-28T02:27:55;2.50;1.00
21849;DHT22;11089;49.852;19.700;2023-04-28T02:31:07;2.50;1.00
21849;DHT22;11089;49.852;19.700;2023-04-28T02:34:08;2.50;1.00
21849;DHT22;11089;49.852;19.700;2023-04-28T02:37:09;2.50;1.00
21849;DHT22;11089;49.852;19.700;2023-04-28T02:40:10;2.50;1.00
21849;DHT22;11089;49.852;19.700;2023-04-28T02:43:11;2.50;1.00
21849;DHT22;11089;49.852;19.700;2023-04-28T02:46:12;2.50;1.00
21849;DHT22;11089;49.852;19.700;2023-04-28T02:49:13;2.40;1.00
21849;DHT22;11089;49.852;19.700;2023-04-28T02:52:14;2.40;1.00
21849;DHT22;11089;49.852;19.700;2023-04-28T02:55:15;2.40;1.00
21849;DHT22;11089;49.852;19.700;2023-04-28T02:58:23;2.30;1.00
21849;DHT22;11089;49.852;19.700;2023-04-28T03:01:24;2.30;99.90
21849;DHT22;11089;49.852;19.700;2023-04-28T03:04:25;2.20;1.00
21849;DHT22;11089;49.852;19.700;2023-04-28T03:07:26;2.10;1.00
21849;DHT22;11089;49.852;19.700;2023-04-28T03:10:27;2.10;1.00
21849;DHT22;11089;49.852;19.700;2023-04-28T03:13:28;2.10;1.00
21849;DHT22;11089;49.852;19.700;2023-04-28T03:16:29;2.00;1.00
21849;DHT22;11089;49.852;19.700;2023-04-28T03:19:30;2.10;99.90
21849;DHT22;11089;49.852;19.700;2023-04-28T03:22:33;2.10;99.90
21849;DHT22;11089;49.852;19.700;2023-04-28T03:25:34;2.20;99.90
21849;DHT22;11089;49.852;19.700;2023-04-28T03:28:35;2.10;1.00
21849;DHT22;11089;49.852;19.700;2023-04-28T03:31:36;2.00;1.00
21849;DHT22;11089;49.852;19.700;2023-04-28T03:34:37;2.00;1.00
21849;DHT22;11089;49.852;19.700;2023-04-28T03:37:38;2.10;1.00
21849;DHT22;11089;49.852;19.700;2023-04-28T03:40:40;2.20;1.00
21849;DHT22;11089;49.852;19.700;2023-04-28T03:43:41;2.10;99.90
21849;DHT22;11089;49.852;19.700;2023-04-28T03:46:42;2.10;1.00
21849;DHT22;11089;49.852;19.700;2023-04-28T03:49:43;2.20;1.00
21849;DHT22;11089;49.852;19.700;2023-04-28T03:52:44;2.20;99.90
21849;DHT22;11089;49.852;19.700;2023-04-28T03:55:45;2.30;1.00
21849;DHT22;11089;49.852;19.700;2023-04-28T03:58:46;2.40;27.00
21849;DHT22;11089;49.852;19.700;2023-04-28T04:01:46;2.50;1.00
21849;DHT22;11089;49.852;19.700;2023-04-28T04:04:47;2.50;1.00
21849;DHT22;11089;49.852;19.700;2023-04-28T04:07:48;2.60;1.00
21849;DHT22;11089;49.852;19.700;2023-04-28T04:10:49;2.50;1.00
21849;DHT22;11089;49.852;19.700;2023-04-28T04:13:51;2.50;99.90
21849;DHT22;11089;49.852;19.700;2023-04-28T04:16:52;2.50;99.90
21849;DHT22;11089;49.852;19.700;2023-04-28T04:19:53;2.50;1.00
21849;DHT22;11089;49.852;19.700;2023-04-28T04:22:53;2.50;1.00
21849;DHT22;11089;49.852;19.700;2023-04-28T04:25:55;2.50;99.90
21849;DHT22;11089;49.852;19.700;2023-04-28T04:28:55;2.50;23.60
21849;DHT22;11089;49.852;19.700;2023-04-28T04:31:56;2.60;1.00
21849;DHT22;11089;49.852;19.700;2023-04-28T04:34:57;2.60;1.00
21849;DHT22;11089;49.852;19.700;2023-04-28T04:37:59;2.70;1.00
21849;DHT22;11089;49.852;19.700;2023-04-28T04:41:00;2.90;99.90
21849;DHT22;11089;49.852;19.700;2023-04-28T04:44:01;3.00;99.90
21849;DHT22;11089;49.852;19.700;2023-04-28T04:47:04;3.20;37.80
21849;DHT22;11089;49.852;19.700;2023-04-28T04:50:05;3.60;1.00
21849;DHT22;11089;49.852;19.700;2023-04-28T04:53:06;3.80;1.00
21849;DHT22;11089;49.852;19.700;2023-04-28T04:56:07;3.80;1.00
21849;DHT22;11089;49.852;19.700;2023-04-28T04:59:08;3.80;1.00
21849;DHT22;11089;49.852;19.700;2023-04-28T05:02:09;3.80;1.00
21849;DHT22;11089;49.852;19.700;2023-04-28T05:05:10;3.70;1.00
21849;DHT22;11089;49.852;19.700;2023-04-28T05:08:11;3.80;1.00
21849;DHT22;11089;49.852;19.700;2023-04-28T05:11:12;3.90;1.00
21849;DHT22;11089;49.852;19.700;2023-04-28T05:14:13;4.00;1.00
21849;DHT22;11089;49.852;19.700;2023-04-28T05:17:14;4.10;1.00
21849;DHT22;11089;49.852;19.700;2023-04-28T05:20:16;4.20;1.00
21849;DHT22;11089;49.852;19.700;2023-04-28T05:23:16;4.30;99.90
21849;DHT22;11089;49.852;19.700;2023-04-28T05:26:17;4.30;99.90
21849;DHT22;11089;49.852;19.700;2023-04-28T05:29:20;4.40;1.00
21849;DHT22;11089;49.852;19.700;2023-04-28T05:32:21;4.50;1.00
21849;DHT22;11089;49.852;19.700;2023-04-28T05:35:22;4.80;17.90
21849;DHT22;11089;49.852;19.700;2023-04-28T05:38:23;5.10;1.00
21849;DHT22;11089;49.852;19.700;2023-04-28T05:41:24;5.40;99.90
21849;DHT22;11089;49.852;19.700;2023-04-28T05:44:25;5.70;99.90
21849;DHT22;11089;49.852;19.700;2023-04-28T05:47:26;5.90;1.00
21849;DHT22;11089;49.852;19.700;2023-04-28T05:50:29;6.20;1.00
21849;DHT22;11089;49.852;19.700;2023-04-28T05:53:30;6.40;1.00
21849;DHT22;11089;49.852;19.700;2023-04-28T05:56:31;6.60;1.00
21849;DHT22;11089;49.852;19.700;2023-04-28T05:59:32;6.70;1.00
21849;DHT22;11089;49.852;19.700;2023-04-28T06:02:33;6.80;1.00
21849;DHT22;11089;49.852;19.700;2023-04-28T06:05:34;7.00;1.00
21849;DHT22;11089;49.852;19.700;2023-04-28T06:08:35;7.10;1.00
21849;DHT22;11089;49.852;19.700;2023-04-28T06:11:36;7.20;1.00
21849;DHT22;11089;49.852;19.700;2023-04-28T06:14:37;7.20;1.00
21849;DHT22;11089;49.852;19.700;2023-04-28T06:17:40;7.30;1.00
21849;DHT22;11089;49.852;19.700;2023-04-28T06:20:42;7.40;1.00
21849;DHT22;11089;49.852;19.700;2023-04-28T06:23:42;7.50;1.00
21849;DHT22;11089;49.852;19.700;2023-04-28T06:26:43;7.60;1.00
21849;DHT22;11089;49.852;19.700;2023-04-28T06:29:45;7.50;1.00
21849;DHT22;11089;49.852;19.700;2023-04-28T06:32:46;7.50;1.00
21849;DHT22;11089;49.852;19.700;2023-04-28T06:35:47;7.90;1.00
21849;DHT22;11089;49.852;19.700;2023-04-28T06:38:48;8.00;1.00
21849;DHT22;11089;49.852;19.700;2023-04-28T06:41:49;8.30;1.00
21849;DHT22;11089;49.852;19.700;2023-04-28T06:44:50;8.40;1.00
21849;DHT22;11089;49.852;19.700;2023-04-28T06:47:52;8.50;1.00
21849;DHT22;11089;49.852;19.700;2023-04-28T06:50:55;8.80;1.00
21849;DHT22;11089;49.852;19.700;2023-04-28T06:53:56;9.00;1.00
21849;DHT22;11089;49.852;19.700;2023-04-28T06:56:57;9.20;1.00
21849;DHT22;11089;49.852;19.700;2023-04-28T06:59:58;9.40;1.00
21849;DHT22;11089;49.852;19.700;2023-04-28T07:02:59;9.40;1.00
21849;DHT22;11089;49.852;19.700;2023-04-28T07:06:00;9.60;1.00
21849;DHT22;11089;49.852;19.700;2023-04-28T07:09:03;9.70;1.00
21849;DHT22;11089;49.852;19.700;2023-04-28T07:12:04;9.70;1.00
21849;DHT22;11089;49.852;19.700;2023-04-28T07:15:06;9.70;1.00
21849;DHT22;11089;49.852;19.700;2023-04-28T07:18:07;9.90;1.00
21849;DHT22;11089;49.852;19.700;2023-04-28T07:21:08;10.20;1.00
21849;DHT22;11089;49.852;19.700;2023-04-28T07:24:09;10.20;1.00
21849;DHT22;11089;49.852;19.700;2023-04-28T07:27:10;10.40;1.00
21849;DHT22;11089;49.852;19.700;2023-04-28T07:30:11;10.50;1.00
21849;DHT22;11089;49.852;19.700;2023-04-28T07:33:12;10.70;1.00
21849;DHT22;11089;49.852;19.700;2023-04-28T07:36:14;10.70;1.00
21849;DHT22;11089;49.852;19.700;2023-04-28T07:39:15;10.80;1.00
21849;DHT22;11089;49.852;19.700;2023-04-28T07:42:16;10.80;1.00
21849;DHT22;11089;49.852;19.700;2023-04-28T07:45:18;11.10;1.00
21849;DHT22;11089;49.852;19.700;2023-04-28T07:48:19;11.00;1.00
21849;DHT22;11089;49.852;19.700;2023-04-28T07:51:20;11.20;1.00
21849;DHT22;11089;49.852;19.700;2023-04-28T07:54:22;11.30;1.00
21849;DHT22;11089;49.852;19.700;2023-04-28T07:57:22;11.40;1.00
21849;DHT22;11089;49.852;19.700;2023-04-28T08:00:24;11.60;1.00
21849;DHT22;11089;49.852;19.700;2023-04-28T08:03:25;11.60;1.00
21849;DHT22;11089;49.852;19.700;2023-04-28T08:06:26;11.90;1.00
21849;DHT22;11089;49.852;19.700;2023-04-28T08:09:28;12.00;1.00
21849;DHT22;11089;49.852;19.700;2023-04-28T08:12:29;12.10;1.00
21849;DHT22;11089;49.852;19.700;2023-04-28T08:15:30;12.30;1.00
21849;DHT22;11089;49.852;19.700;2023-04-28T08:18:32;12.50;99.90
21849;DHT22;11089;49.852;19.700;2023-04-28T08:21:33;12.80;99.90
21849;DHT22;11089;49.852;19.700;2023-04-28T08:24:34;12.90;99.90
21849;DHT22;11089;49.852;19.700;2023-04-28T08:27:35;13.00;99.90
21849;DHT22;11089;49.852;19.700;2023-04-28T08:30:39;13.20;99.90
21849;DHT22;11089;49.852;19.700;2023-04-28T08:33:40;13.30;99.90
21849;DHT22;11089;49.852;19.700;2023-04-28T08:36:44;13.40;99.90
21849;DHT22;11089;49.852;19.700;2023-04-28T08:39:45;13.60;99.90
21849;DHT22;11089;49.852;19.700;2023-04-28T08:42:47;13.50;99.90
21849;DHT22;11089;49.852;19.700;2023-04-28T08:45:48;13.80;99.90
21849;DHT22;11089;49.852;19.700;2023-04-28T08:48:51;14.10;99.90
21849;DHT22;11089;49.852;19.700;2023-04-28T08:51:59;14.30;99.90
21849;DHT22;11089;49.852;19.700;2023-04-28T08:55:06;14.60;99.90
21849;DHT22;11089;49.852;19.700;2023-04-28T08:58:07;14.70;99.90
21849;DHT22;11089;49.852;19.700;2023-04-28T09:01:08;14.70;99.90
21849;DHT22;11089;49.852;19.700;2023-04-28T09:04:09;14.50;99.90
21849;DHT22;11089;49.852;19.700;2023-04-28T09:07:11;14.40;99.90
21849;DHT22;11089;49.852;19.700;2023-04-28T09:10:21;14.80;99.90
21849;DHT22;11089;49.852;19.700;2023-04-28T09:13:25;15.20;99.90
21849;DHT22;11089;49.852;19.700;2023-04-28T09:16:39;15.30;99.90
21849;DHT22;11089;49.852;19.700;2023-04-28T09:19:41;15.50;99.90
21849;DHT22;11089;49.852;19.700;2023-04-28T09:22:45;15.90;99.90
21849;DHT22;11089;49.852;19.700;2023-04-28T09:26:02;15.60;99.90
21849;DHT22;11089;49.852;19.700;2023-04-28T09:29:13;15.90;99.90
21849;DHT22;11089;49.852;19.700;2023-04-28T09:32:16;15.50;99.90
21849;DHT22;11089;49.852;19.700;2023-04-28T09:35:38;15.60;99.90
21849;DHT22;11089;49.852;19.700;2023-04-28T09:38:42;15.70;99.90
21849;DHT22;11089;49.852;19.700;2023-04-28T09:41:44;15.60;99.90
21849;DHT22;11089;49.852;19.700;2023-04-28T09:44:52;16.50;99.90
21849;DHT22;11089;49.852;19.700;2023-04-28T09:48:08;17.00;99.90
21849;DHT22;11089;49.852;19.700;2023-04-28T09:51:10;17.10;99.90
21849;DHT22;11089;49.852;19.700;2023-04-28T09:54:11;17.60;99.90
21849;DHT22;11089;49.852;19.700;2023-04-28T09:57:13;17.80;99.90
21849;DHT22;11089;49.852;19.700;2023-04-28T10:00:16;18.20;99.90
21849;DHT22;11089;49.852;19.700;2023-04-28T10:03:17;18.50;99.90
21849;DHT22;11089;49.852;19.700;2023-04-28T10:06:20;18.40;99.90
21849;DHT22;11089;49.852;19.700;2023-04-28T10:09:22;18.80;99.90
21849;DHT22;11089;49.852;19.700;2023-04-28T10:12:26;18.80;99.90
21849;DHT22;11089;49.852;19.700;2023-04-28T10:15:27;18.80;99.90
21849;DHT22;11089;49.852;19.700;2023-04-28T10:18:29;18.60;99.90
21849;DHT22;11089;49.852;19.700;2023-04-28T10:21:32;18.00;99.90
21849;DHT22;11089;49.852;19.700;2023-04-28T10:24:56;17.40;99.90
21849;DHT22;11089;49.852;19.700;2023-04-28T10:27:59;18.20;99.90
21849;DHT22;11089;49.852;19.700;2023-04-28T10:31:11;18.80;99.90
21849;DHT22;11089;49.852;19.700;2023-04-28T10:34:22;19.40;99.90
21849;DHT22;11089;49.852;19.700;2023-04-28T10:40:58;19.50;99.90
21849;DHT22;11089;49.852;19.700;2023-04-28T10:48:00;20.60;99.90
21849;DHT22;11089;49.852;19.700;2023-04-28T10:54:09;20.00;99.90
21849;DHT22;11089;49.852;19.700;2023-04-28T10:57:17;20.30;99.90
21849;DHT22;11089;49.852;19.700;2023-04-28T11:00:28;20.50;99.90
21849;DHT22;11089;49.852;19.700;2023-04-28T11:03:48;20.40;99.90
21849;DHT22;11089;49.852;19.700;2023-04-28T11:07:09;20.80;99.90
21849;DHT22;11089;49.852;19.700;2023-04-28T11:10:11;21.10;99.90
21849;DHT22;11089;49.852;19.700;2023-04-28T11:13:27;21.50;99.90
21849;DHT22;11089;49.852;19.700;2023-04-28T11:16:31;21.70;99.90
21849;DHT22;11089;49.852;19.700;2023-04-28T11:19:40;21.00;99.90
21849;DHT22;11089;49.852;19.700;2023-04-28T11:22:41;20.00;99.90
21849;DHT22;11089;49.852;19.700;2023-04-28T11:26:01;20.00;99.90
21849;DHT22;11089;49.852;19.700;2023-04-28T11:29:02;20.80;99.90
21849;DHT22;11089;49.852;19.700;2023-04-28T11:32:04;20.60;99.90
21849;DHT22;11089;49.852;19.700;2023-04-28T11:35:05;20.90;99.90
21849;DHT22;11089;49.852;19.700;2023-04-28T11:38:09;21.30;99.90
21849;DHT22;11089;49.852;19.700;2023-04-28T11:41:10;21.10;99.90
21849;DHT22;11089;49.852;19.700;2023-04-28T11:44:19;19.70;99.90
21849;DHT22;11089;49.852;19.700;2023-04-28T11:47:31;19.80;99.90
21849;DHT22;11089;49.852;19.700;2023-04-28T11:50:36;20.80;99.90
21849;DHT22;11089;49.852;19.700;2023-04-28T11:53:44;21.50;99.90
21849;DHT22;11089;49.852;19.700;2023-04-28T11:56:45;21.70;99.90
21849;DHT22;11089;49.852;19.700;2023-04-28T11:59:46;20.90;99.90
21849;DHT22;11089;49.852;19.700;2023-04-28T12:02:47;21.10;99.90
21849;DHT22;11089;49.852;19.700;2023-04-28T12:05:48;21.70;99.90
21849;DHT22;11089;49.852;19.700;2023-04-28T12:08:49;22.10;99.90
21849;DHT22;11089;49.852;19.700;2023-04-28T12:11:56;21.20;99.90
21849;DHT22;11089;49.852;19.700;2023-04-28T12:15:00;21.70;99.90
21849;DHT22;11089;49.852;19.700;2023-04-28T12:18:09;21.90;99.90
21849;DHT22;11089;49.852;19.700;2023-04-28T12:21:20;21.80;99.90
21849;DHT22;11089;49.852;19.700;2023-04-28T12:24:21;21.60;99.90
21849;DHT22;11089;49.852;19.700;2023-04-28T12:27:22;22.20;99.90
21849;DHT22;11089;49.852;19.700;2023-04-28T12:30:28;22.60;99.90
21849;DHT22;11089;49.852;19.700;2023-04-28T12:33:29;22.80;99.90
21849;DHT22;11089;49.852;19.700;2023-04-28T12:36:30;22.80;99.90
21849;DHT22;11089;49.852;19.700;2023-04-28T12:39:35;21.50;99.90
21849;DHT22;11089;49.852;19.700;2023-04-28T12:42:36;20.90;99.90
21849;DHT22;11089;49.852;19.700;2023-04-28T12:45:37;21.20;99.90
21849;DHT22;11089;49.852;19.700;2023-04-28T12:48:38;21.30;99.90
21849;DHT22;11089;49.852;19.700;2023-04-28T12:51:39;21.10;99.90
21849;DHT22;11089;49.852;19.700;2023-04-28T12:54:41;21.50;99.90
21849;DHT22;11089;49.852;19.700;2023-04-28T12:57:46;22.20;99.90
21849;DHT22;11089;49.852;19.700;2023-04-28T13:00:47;22.40;99.90
21849;DHT22;11089;49.852;19.700;2023-04-28T13:03:48;22.50;99.90
21849;DHT22;11089;49.852;19.700;2023-04-28T13:06:51;21.40;99.90
21849;DHT22;11089;49.852;19.700;2023-04-28T13:09:54;20.80;99.90
21849;DHT22;11089;49.852;19.700;2023-04-28T13:12:55;20.40;99.90
21849;DHT22;11089;49.852;19.700;2023-04-28T13:15:56;20.20;99.90
21849;DHT22;11089;49.852;19.700;2023-04-28T13:18:58;19.40;99.90
21849;DHT22;11089;49.852;19.700;2023-04-28T13:21:59;19.90;99.90
21849;DHT22;11089;49.852;19.700;2023-04-28T13:25:01;20.50;99.90
21849;DHT22;11089;49.852;19.700;2023-04-28T13:28:02;20.80;99.90
21849;DHT22;11089;49.852;19.700;2023-04-28T13:31:03;20.40;99.90
21849;DHT22;11089;49.852;19.700;2023-04-28T13:34:04;20.70;99.90
21849;DHT22;11089;49.852;19.700;2023-04-28T13:37:05;21.20;99.90
21849;DHT22;11089;49.852;19.700;2023-04-28T13:40:07;21.40;99.90
21849;DHT22;11089;49.852;19.700;2023-04-28T13:43:08;21.50;99.90
21849;DHT22;11089;49.852;19.700;2023-04-28T13:46:10;21.50;99.90
21849;DHT22;11089;49.852;19.700;2023-04-28T13:49:11;21.30;99.90
21849;DHT22;11089;49.852;19.700;2023-04-28T13:52:13;21.20;99.90
21849;DHT22;11089;49.852;19.700;2023-04-28T13:55:14;20.90;99.90
21849;DHT22;11089;49.852;19.700;2023-04-28T13:58:15;21.00;99.90
21849;DHT22;11089;49.852;19.700;2023-04-28T14:01:16;20.00;99.90
21849;DHT22;11089;49.852;19.700;2023-04-28T14:04:17;20.10;99.90
21849;DHT22;11089;49.852;19.700;2023-04-28T14:07:18;20.00;99.90
21849;DHT22;11089;49.852;19.700;2023-04-28T14:10:19;20.10;99.90
21849;DHT22;11089;49.852;19.700;2023-04-28T14:13:20;19.90;99.90
21849;DHT22;11089;49.852;19.700;2023-04-28T14:16:21;19.90;99.90
21849;DHT22;11089;49.852;19.700;2023-04-28T14:19:22;19.70;99.90
21849;DHT22;11089;49.852;19.700;2023-04-28T14:22:23;19.90;99.90
21849;DHT22;11089;49.852;19.700;2023-04-28T14:25:24;20.10;99.90
21849;DHT22;11089;49.852;19.700;2023-04-28T14:28:27;20.10;99.90
21849;DHT22;11089;49.852;19.700;2023-04-28T14:31:28;20.20;99.90
21849;DHT22;11089;49.852;19.700;2023-04-28T14:34:29;19.80;99.90
21849;DHT22;11089;49.852;19.700;2023-04-28T14:37:30;19.80;99.90
21849;DHT22;11089;49.852;19.700;2023-04-28T14:40:31;19.80;99.90
21849;DHT22;11089;49.852;19.700;2023-04-28T14:43:34;19.70;99.90
21849;DHT22;11089;49.852;19.700;2023-04-28T14:46:35;19.30;99.90
21849;DHT22;11089;49.852;19.700;2023-04-28T14:49:36;19.20;99.90
21849;DHT22;11089;49.852;19.700;2023-04-28T14:52:37;19.40;99.90
21849;DHT22;11089;49.852;19.700;2023-04-28T14:55:38;19.20;99.90
21849;DHT22;11089;49.852;19.700;2023-04-28T14:58:39;19.30;99.90
21849;DHT22;11089;49.852;19.700;2023-04-28T15:01:40;19.50;99.90
21849;DHT22;11089;49.852;19.700;2023-04-28T15:04:42;19.50;99.90
21849;DHT22;11089;49.852;19.700;2023-04-28T15:07:43;19.60;99.90
21849;DHT22;11089;49.852;19.700;2023-04-28T15:10:44;19.70;99.90
21849;DHT22;11089;49.852;19.700;2023-04-28T15:13:45;19.70;99.90
21849;DHT22;11089;49.852;19.700;2023-04-28T15:16:47;19.60;99.90
21849;DHT22;11089;49.852;19.700;2023-04-28T15:19:48;19.50;99.90
21849;DHT22;11089;49.852;19.700;2023-04-28T15:22:49;19.40;99.90
21849;DHT22;11089;49.852;19.700;2023-04-28T15:25:50;19.20;99.90
21849;DHT22;11089;49.852;19.700;2023-04-28T15:28:53;19.10;99.90
21849;DHT22;11089;49.852;19.700;2023-04-28T15:31:54;18.80;99.90
21849;DHT22;11089;49.852;19.700;2023-04-28T15:34:56;18.60;99.90
21849;DHT22;11089;49.852;19.700;2023-04-28T15:37:57;18.70;99.90
21849;DHT22;11089;49.852;19.700;2023-04-28T15:40:59;18.50;99.90
21849;DHT22;11089;49.852;19.700;2023-04-28T15:44:01;18.20;99.90
21849;DHT22;11089;49.852;19.700;2023-04-28T15:47:02;18.10;99.90
21849;DHT22;11089;49.852;19.700;2023-04-28T15:50:03;18.00;99.90
21849;DHT22;11089;49.852;19.700;2023-04-28T15:53:04;17.90;99.90
21849;DHT22;11089;49.852;19.700;2023-04-28T15:56:05;17.90;99.90
21849;DHT22;11089;49.852;19.700;2023-04-28T15:59:07;17.80;99.90
21849;DHT22;11089;49.852;19.700;2023-04-28T16:02:09;17.70;99.90
21849;DHT22;11089;49.852;19.700;2023-04-28T16:05:11;17.70;99.90
21849;DHT22;11089;49.852;19.700;2023-04-28T16:08:12;17.60;99.90
21849;DHT22;11089;49.852;19.700;2023-04-28T16:11:13;17.50;99.90
21849;DHT22;11089;49.852;19.700;2023-04-28T16:14:18;17.50;99.90
21849;DHT22;11089;49.852;19.700;2023-04-28T16:17:19;17.40;99.90
21849;DHT22;11089;49.852;19.700;2023-04-28T16:20:21;17.30;99.90
21849;DHT22;11089;49.852;19.700;2023-04-28T16:23:22;17.10;99.90
21849;DHT22;11089;49.852;19.700;2023-04-28T16:26:23;17.00;99.90
21849;DHT22;11089;49.852;19.700;2023-04-28T16:29:24;16.90;99.90
21849;DHT22;11089;49.852;19.700;2023-04-28T16:32:26;16.80;99.90
21849;DHT22;11089;49.852;19.700;2023-04-28T16:35:27;16.70;99.90
21849;DHT22;11089;49.852;19.700;2023-04-28T16:38:28;16.40;99.90
21849;DHT22;11089;49.852;19.700;2023-04-28T16:41:29;16.50;99.90
21849;DHT22;11089;49.852;19.700;2023-04-28T16:44:30;16.40;99.90
21849;DHT22;11089;49.852;19.700;2023-04-28T16:47:31;16.20;99.90
21849;DHT22;11089;49.852;19.700;2023-04-28T16:50:32;16.30;99.90
21849;DHT22;11089;49.852;19.700;2023-04-28T16:53:33;16.20;99.90
21849;DHT22;11089;49.852;19.700;2023-04-28T16:56:34;16.10;99.90
21849;DHT22;11089;49.852;19.700;2023-04-28T16:59:38;16.00;99.90
21849;DHT22;11089;49.852;19.700;2023-04-28T17:02:39;16.00;99.90
21849;DHT22;11089;49.852;19.700;2023-04-28T17:05:40;15.80;99.90
21849;DHT22;11089;49.852;19.700;2023-04-28T17:08:41;15.80;99.90
21849;DHT22;11089;49.852;19.700;2023-04-28T17:11:42;15.80;99.90
21849;DHT22;11089;49.852;19.700;2023-04-28T17:14:43;15.70;99.90
21849;DHT22;11089;49.852;19.700;2023-04-28T17:17:48;15.70;99.90
21849;DHT22;11089;49.852;19.700;2023-04-28T17:20:50;15.60;99.90
21849;DHT22;11089;49.852;19.700;2023-04-28T17:23:51;15.50;99.90
21849;DHT22;11089;49.852;19.700;2023-04-28T17:26:52;15.40;99.90
21849;DHT22;11089;49.852;19.700;2023-04-28T17:29:53;15.30;99.90
21849;DHT22;11089;49.852;19.700;2023-04-28T17:32:54;15.20;99.90
21849;DHT22;11089;49.852;19.700;2023-04-28T17:35:55;15.10;99.90
21849;DHT22;11089;49.852;19.700;2023-04-28T17:38:56;15.10;99.90
21849;DHT22;11089;49.852;19.700;2023-04-28T17:41:57;15.00;99.90
21849;DHT22;11089;49.852;19.700;2023-04-28T17:44:59;14.90;99.90
21849;DHT22;11089;49.852;19.700;2023-04-28T17:48:00;14.80;99.90
21849;DHT22;11089;49.852;19.700;2023-04-28T17:51:01;14.50;99.90
21849;DHT22;11089;49.852;19.700;2023-04-28T17:54:02;14.40;99.90
21849;DHT22;11089;49.852;19.700;2023-04-28T17:57:05;14.30;99.90
21849;DHT22;11089;49.852;19.700;2023-04-28T18:00:07;14.20;99.90
21849;DHT22;11089;49.852;19.700;2023-04-28T18:03:09;14.10;99.90
21849;DHT22;11089;49.852;19.700;2023-04-28T18:06:10;13.90;99.90
21849;DHT22;11089;49.852;19.700;2023-04-28T18:09:13;13.90;99.90
21849;DHT22;11089;49.852;19.700;2023-04-28T18:12:14;13.80;99.90
21849;DHT22;11089;49.852;19.700;2023-04-28T18:15:15;13.80;99.90
21849;DHT22;11089;49.852;19.700;2023-04-28T18:18:16;13.60;99.90
21849;DHT22;11089;49.852;19.700;2023-04-28T18:21:17;13.40;99.90
21849;DHT22;11089;49.852;19.700;2023-04-28T18:24:18;13.40;99.90
21849;DHT22;11089;49.852;19.700;2023-04-28T18:27:19;13.40;99.90
21849;DHT22;11089;49.852;19.700;2023-04-28T18:30:20;13.20;99.90
21849;DHT22;11089;49.852;19.700;2023-04-28T18:33:21;13.00;99.90
21849;DHT22;11089;49.852;19.700;2023-04-28T18:36:25;13.00;99.90
21849;DHT22;11089;49.852;19.700;2023-04-28T18:39:26;13.00;99.90
21849;DHT22;11089;49.852;19.700;2023-04-28T18:42:27;13.00;99.90
21849;DHT22;11089;49.852;19.700;2023-04-28T18:45:33;12.90;99.90
21849;DHT22;11089;49.852;19.700;2023-04-28T18:48:35;12.90;99.90
21849;DHT22;11089;49.852;19.700;2023-04-28T18:51:36;12.60;99.90
21849;DHT22;11089;49.852;19.700;2023-04-28T18:54:38;12.60;99.90
21849;DHT22;11089;49.852;19.700;2023-04-28T18:57:39;12.60;99.90
21849;DHT22;11089;49.852;19.700;2023-04-28T19:00:40;12.50;99.90
21849;DHT22;11089;49.852;19.700;2023-04-28T19:03:42;12.40;99.90
21849;DHT22;11089;49.852;19.700;2023-04-28T19:06:44;12.40;99.90
21849;DHT22;11089;49.852;19.700;2023-04-28T19:09:45;12.50;99.90
21849;DHT22;11089;49.852;19.700;2023-04-28T19:12:46;12.50;99.90
21849;DHT22;11089;49.852;19.700;2023-04-28T19:15:48;12.60;99.90
21849;DHT22;11089;49.852;19.700;2023-04-28T19:18:51;12.40;99.90